sensor_id;sensor_type;location;lat;lon;timestamp;P1;durP1;ratioP1;P2;durP2;ratioP2
49860;SDS011;35761;48.826;9.238;2023-08-01T00:01:53;5.70;;;3.20;;
49860;SDS011;35761;48.826;9.238;2023-08-01T00:04:18;5.78;;;3.17;;
49860;SDS011;35761;48.826;9.238;2023-08-01T00:06:43;6.68;;;3.20;;
49860;SDS011;35761;48.826;9.238;2023-08-01T00:09:09;6.93;;;3.33;;
49860;SDS011;35761;48.826;9.238;2023-08-01T00:11:34;8.50;;;3.30;;
49860;SDS011;35761;48.826;9.238;2023-08-01T00:14:00;9.85;;;3.80;;
49860;SDS011;35761;48.826;9.238;2023-08-01T00:16:26;6.97;;;3.40;;
49860;SDS011;35761;48.826;9.238;2023-08-01T00:18:52;6.35;;;3.65;;
49860;SDS011;35761;48.826;9.238;2023-08-01T00:21:17;11.70;;;3.47;;
49860;SDS011;35761;48.826;9.238;2023-08-01T00:23:43;6.07;;;3.35;;
49860;SDS011;35761;48.826;9.238;2023-08-01T00:26:08;7.22;;;3.50;;
49860;SDS011;35761;48.826;9.238;2023-08-01T00:28:33;6.00;;;3.22;;
49860;SDS011;35761;48.826;9.238;2023-08-01T00:31:02;5.18;;;3.17;;
49860;SDS011;35761;48.826;9.238;2023-08-01T00:33:32;6.60;;;3.33;;
49860;SDS011;35761;48.826;9.238;2023-08-01T00:35:58;9.95;;;6.07;;
49860;SDS011;35761;48.826;9.238;2023-08-01T00:38:23;32.00;;;20.45;;
49860;SDS011;35761;48.826;9.238;2023-08-01T00:40:49;11.10;;;6.50;;
49860;SDS011;35761;48.826;9.238;2023-08-01T00:43:15;6.45;;;3.95;;
49860;SDS011;35761;48.826;9.238;2023-08-01T00:45:40;10.35;;;4.53;;
49860;SDS011;35761;48.826;9.238;2023-08-01T00:48:06;11.23;;;5.88;;
49860;SDS011;35761;48.826;9.238;2023-08-01T00:50:32;20.55;;;11.80;;
49860;SDS011;35761;48.826;9.238;2023-08-01T00:52:58;7.15;;;4.35;;
49860;SDS011;35761;48.826;9.238;2023-08-01T00:55:23;7.28;;;3.40;;
49860;SDS011;35761;48.826;9.238;2023-08-01T00:57:49;7.85;;;3.45;;
49860;SDS011;35761;48.826;9.238;2023-08-01T01:00:15;5.85;;;3.22;;
49860;SDS011;35761;48.826;9.238;2023-08-01T01:02:40;6.45;;;3.42;;
49860;SDS011;35761;48.826;9.238;2023-08-01T01:05:06;6.65;;;3.40;;
49860;SDS011;35761;48.826;9.238;2023-08-01T01:07:31;11.95;;;3.60;;
49860;SDS011;35761;48.826;9.238;2023-08-01T01:09:58;7.93;;;3.65;;
49860;SDS011;35761;48.826;9.238;2023-08-01T01:12:23;8.30;;;4.00;;
49860;SDS011;35761;48.826;9.238;2023-08-01T01:14:49;6.10;;;3.47;;
49860;SDS011;35761;48.826;9.238;2023-08-01T01:17:14;7.05;;;3.53;;
49860;SDS011;35761;48.826;9.238;2023-08-01T01:19:40;8.60;;;3.65;;
49860;SDS011;35761;48.826;9.238;2023-08-01T01:22:06;8.23;;;3.42;;
49860;SDS011;35761;48.826;9.238;2023-08-01T01:24:33;5.93;;;3.33;;
49860;SDS011;35761;48.826;9.238;2023-08-01T01:26:59;8.02;;;3.35;;
49860;SDS011;35761;48.826;9.238;2023-08-01T01:29:26;6.40;;;3.50;;
49860;SDS011;35761;48.826;9.238;2023-08-01T01:31:52;8.75;;;3.67;;
49860;SDS011;35761;48.826;9.238;2023-08-01T01:34:18;6.70;;;3.55;;
49860;SDS011;35761;48.826;9.238;2023-08-01T01:36:43;8.13;;;3.92;;
49860;SDS011;35761;48.826;9.238;2023-08-01T01:39:09;8.60;;;3.70;;
49860;SDS011;35761;48.826;9.238;2023-08-01T01:41:34;9.32;;;3.53;;
49860;SDS011;35761;48.826;9.238;2023-08-01T01:43:59;5.25;;;3.40;;
49860;SDS011;35761;48.826;9.238;2023-08-01T01:46:25;8.52;;;3.78;;
49860;SDS011;35761;48.826;9.238;2023-08-01T01:48:50;10.20;;;3.60;;
49860;SDS011;35761;48.826;9.238;2023-08-01T01:51:16;7.07;;;3.97;;
49860;SDS011;35761;48.826;9.238;2023-08-01T01:53:41;10.50;;;3.80;;
49860;SDS011;35761;48.826;9.238;2023-08-01T01:56:07;7.57;;;3.28;;
49860;SDS011;35761;48.826;9.238;2023-08-01T01:58:33;11.02;;;3.72;;
49860;SDS011;35761;48.826;9.238;2023-08-01T02:00:58;7.60;;;3.63;;
49860;SDS011;35761;48.826;9.238;2023-08-01T02:03:24;6.43;;;3.60;;
49860;SDS011;35761;48.826;9.238;2023-08-01T02:05:49;7.55;;;3.70;;
49860;SDS011;35761;48.826;9.238;2023-08-01T02:08:16;6.50;;;3.65;;
49860;SDS011;35761;48.826;9.238;2023-08-01T02:10:41;8.00;;;3.60;;
49860;SDS011;35761;48.826;9.238;2023-08-01T02:13:07;6.80;;;3.83;;
49860;SDS011;35761;48.826;9.238;2023-08-01T02:15:34;8.38;;;4.15;;
49860;SDS011;35761;48.826;9.238;2023-08-01T02:17:59;5.68;;;3.60;;
49860;SDS011;35761;48.826;9.238;2023-08-01T02:20:25;9.18;;;3.88;;
49860;SDS011;35761;48.826;9.238;2023-08-01T02:22:51;7.32;;;3.80;;
49860;SDS011;35761;48.826;9.238;2023-08-01T02:25:17;7.03;;;3.83;;
49860;SDS011;35761;48.826;9.238;2023-08-01T02:27:42;10.25;;;3.42;;
49860;SDS011;35761;48.826;9.238;2023-08-01T02:30:08;8.45;;;4.28;;
49860;SDS011;35761;48.826;9.238;2023-08-01T02:32:34;8.02;;;3.83;;
49860;SDS011;35761;48.826;9.238;2023-08-01T02:35:00;11.90;;;3.75;;
49860;SDS011;35761;48.826;9.238;2023-08-01T02:37:25;7.53;;;4.05;;
49860;SDS011;35761;48.826;9.238;2023-08-01T02:39:50;6.50;;;3.55;;
49860;SDS011;35761;48.826;9.238;2023-08-01T02:42:16;8.60;;;3.75;;
49860;SDS011;35761;48.826;9.238;2023-08-01T02:44:41;5.63;;;3.38;;
49860;SDS011;35761;48.826;9.238;2023-08-01T02:47:07;7.95;;;3.83;;
49860;SDS011;35761;48.826;9.238;2023-08-01T02:49:32;5.95;;;3.58;;
49860;SDS011;35761;48.826;9.238;2023-08-01T02:51:58;9.18;;;3.83;;
49860;SDS011;35761;48.826;9.238;2023-08-01T02:54:24;7.57;;;3.88;;
49860;SDS011;35761;48.826;9.238;2023-08-01T02:56:49;7.47;;;3.47;;
49860;SDS011;35761;48.826;9.238;2023-08-01T02:59:16;8.52;;;4.18;;
49860;SDS011;35761;48.826;9.238;2023-08-01T03:01:43;8.68;;;4.00;;
49860;SDS011;35761;48.826;9.238;2023-08-01T03:04:09;6.90;;;3.55;;
49860;SDS011;35761;48.826;9.238;2023-08-01T03:06:37;7.85;;;3.60;;
49860;SDS011;35761;48.826;9.238;2023-08-01T03:09:03;8.50;;;3.70;;
49860;SDS011;35761;48.826;9.238;2023-08-01T03:11:28;11.88;;;3.95;;
49860;SDS011;35761;48.826;9.238;2023-08-01T03:13:54;7.93;;;3.88;;
49860;SDS011;35761;48.826;9.238;2023-08-01T03:16:19;5.60;;;3.33;;
49860;SDS011;35761;48.826;9.238;2023-08-01T03:18:45;9.13;;;3.75;;
49860;SDS011;35761;48.826;9.238;2023-08-01T03:21:10;7.32;;;3.90;;
49860;SDS011;35761;48.826;9.238;2023-08-01T03:23:36;8.27;;;3.83;;
49860;SDS011;35761;48.826;9.238;2023-08-01T03:26:02;8.05;;;3.33;;
49860;SDS011;35761;48.826;9.238;2023-08-01T03:28:27;9.50;;;3.65;;
49860;SDS011;35761;48.826;9.238;2023-08-01T03:30:53;11.60;;;3.42;;
49860;SDS011;35761;48.826;9.238;2023-08-01T03:33:22;7.15;;;3.65;;
49860;SDS011;35761;48.826;9.238;2023-08-01T03:35:47;6.32;;;3.22;;
49860;SDS011;35761;48.826;9.238;2023-08-01T03:38:13;7.00;;;4.05;;
49860;SDS011;35761;48.826;9.238;2023-08-01T03:40:38;11.45;;;4.00;;
49860;SDS011;35761;48.826;9.238;2023-08-01T03:43:04;7.45;;;4.03;;
49860;SDS011;35761;48.826;9.238;2023-08-01T03:45:31;9.10;;;3.75;;
49860;SDS011;35761;48.826;9.238;2023-08-01T03:47:58;8.02;;;3.47;;
49860;SDS011;35761;48.826;9.238;2023-08-01T03:50:24;5.85;;;3.90;;
49860;SDS011;35761;48.826;9.238;2023-08-01T03:52:50;8.43;;;3.50;;
49860;SDS011;35761;48.826;9.238;2023-08-01T03:55:16;7.30;;;3.45;;
49860;SDS011;35761;48.826;9.238;2023-08-01T03:57:42;9.32;;;3.50;;
49860;SDS011;35761;48.826;9.238;2023-08-01T04:00:08;7.95;;;3.67;;
49860;SDS011;35761;48.826;9.238;2023-08-01T04:02:43;11.15;;;4.05;;
49860;SDS011;35761;48.826;9.238;2023-08-01T04:05:08;7.47;;;4.22;;
49860;SDS011;35761;48.826;9.238;2023-08-01T04:07:34;7.35;;;3.70;;
49860;SDS011;35761;48.826;9.238;2023-08-01T04:10:01;9.70;;;3.83;;
49860;SDS011;35761;48.826;9.238;2023-08-01T04:12:28;5.00;;;3.10;;
49860;SDS011;35761;48.826;9.238;2023-08-01T04:14:55;8.65;;;3.42;;
49860;SDS011;35761;48.826;9.238;2023-08-01T04:17:20;12.35;;;3.40;;
49860;SDS011;35761;48.826;9.238;2023-08-01T04:19:45;6.95;;;3.38;;
49860;SDS011;35761;48.826;9.238;2023-08-01T04:22:11;7.55;;;3.60;;
49860;SDS011;35761;48.826;9.238;2023-08-01T04:24:36;5.88;;;3.28;;
49860;SDS011;35761;48.826;9.238;2023-08-01T04:27:02;6.63;;;3.03;;
49860;SDS011;35761;48.826;9.238;2023-08-01T04:29:27;9.02;;;3.15;;
49860;SDS011;35761;48.826;9.238;2023-08-01T04:31:53;6.75;;;3.03;;
49860;SDS011;35761;48.826;9.238;2023-08-01T04:34:18;8.73;;;3.55;;
49860;SDS011;35761;48.826;9.238;2023-08-01T04:36:44;8.63;;;3.40;;
49860;SDS011;35761;48.826;9.238;2023-08-01T04:39:09;8.02;;;2.92;;
49860;SDS011;35761;48.826;9.238;2023-08-01T04:41:35;7.95;;;3.42;;
49860;SDS011;35761;48.826;9.238;2023-08-01T04:44:00;8.05;;;3.40;;
49860;SDS011;35761;48.826;9.238;2023-08-01T04:46:26;8.68;;;3.30;;
49860;SDS011;35761;48.826;9.238;2023-08-01T04:48:51;5.90;;;3.22;;
49860;SDS011;35761;48.826;9.238;2023-08-01T04:51:17;9.90;;;3.55;;
49860;SDS011;35761;48.826;9.238;2023-08-01T04:53:42;8.02;;;3.38;;
49860;SDS011;35761;48.826;9.238;2023-08-01T04:56:07;11.73;;;3.08;;
49860;SDS011;35761;48.826;9.238;2023-08-01T04:58:33;8.48;;;3.30;;
49860;SDS011;35761;48.826;9.238;2023-08-01T05:00:58;7.40;;;3.75;;
49860;SDS011;35761;48.826;9.238;2023-08-01T05:03:24;10.00;;;3.20;;
49860;SDS011;35761;48.826;9.238;2023-08-01T05:05:49;7.45;;;3.42;;
49860;SDS011;35761;48.826;9.238;2023-08-01T05:08:15;6.93;;;3.40;;
49860;SDS011;35761;48.826;9.238;2023-08-01T05:10:40;7.95;;;3.05;;
49860;SDS011;35761;48.826;9.238;2023-08-01T05:13:06;8.23;;;4.63;;
49860;SDS011;35761;48.826;9.238;2023-08-01T05:15:31;6.47;;;3.00;;
49860;SDS011;35761;48.826;9.238;2023-08-01T05:17:56;8.45;;;3.30;;
49860;SDS011;35761;48.826;9.238;2023-08-01T05:20:22;7.07;;;3.53;;
49860;SDS011;35761;48.826;9.238;2023-08-01T05:22:47;7.60;;;3.08;;
49860;SDS011;35761;48.826;9.238;2023-08-01T05:25:13;5.47;;;2.88;;
49860;SDS011;35761;48.826;9.238;2023-08-01T05:27:38;4.68;;;2.63;;
49860;SDS011;35761;48.826;9.238;2023-08-01T05:30:04;5.70;;;2.88;;
49860;SDS011;35761;48.826;9.238;2023-08-01T05:32:30;7.53;;;2.70;;
49860;SDS011;35761;48.826;9.238;2023-08-01T05:34:55;5.78;;;3.00;;
49860;SDS011;35761;48.826;9.238;2023-08-01T05:37:21;5.68;;;2.75;;
49860;SDS011;35761;48.826;9.238;2023-08-01T05:39:46;10.25;;;2.75;;
49860;SDS011;35761;48.826;9.238;2023-08-01T05:42:12;9.20;;;3.50;;
49860;SDS011;35761;48.826;9.238;2023-08-01T05:44:37;7.53;;;3.08;;
49860;SDS011;35761;48.826;9.238;2023-08-01T05:47:02;6.80;;;3.30;;
49860;SDS011;35761;48.826;9.238;2023-08-01T05:49:28;5.53;;;2.92;;
49860;SDS011;35761;48.826;9.238;2023-08-01T05:51:55;8.75;;;3.22;;
49860;SDS011;35761;48.826;9.238;2023-08-01T05:54:20;7.93;;;3.20;;
49860;SDS011;35761;48.826;9.238;2023-08-01T05:56:46;7.85;;;3.30;;
49860;SDS011;35761;48.826;9.238;2023-08-01T05:59:11;12.02;;;5.63;;
49860;SDS011;35761;48.826;9.238;2023-08-01T06:01:36;11.13;;;6.35;;
49860;SDS011;35761;48.826;9.238;2023-08-01T06:04:02;9.90;;;4.82;;
49860;SDS011;35761;48.826;9.238;2023-08-01T06:06:28;7.28;;;3.47;;
49860;SDS011;35761;48.826;9.238;2023-08-01T06:08:53;6.93;;;3.42;;
49860;SDS011;35761;48.826;9.238;2023-08-01T06:11:18;9.55;;;3.78;;
49860;SDS011;35761;48.826;9.238;2023-08-01T06:13:44;7.50;;;3.03;;
49860;SDS011;35761;48.826;9.238;2023-08-01T06:16:09;10.05;;;3.40;;
49860;SDS011;35761;48.826;9.238;2023-08-01T06:18:36;13.90;;;4.00;;
49860;SDS011;35761;48.826;9.238;2023-08-01T06:21:01;9.85;;;4.40;;
49860;SDS011;35761;48.826;9.238;2023-08-01T06:23:27;8.02;;;3.90;;
49860;SDS011;35761;48.826;9.238;2023-08-01T06:25:53;9.48;;;3.47;;
49860;SDS011;35761;48.826;9.238;2023-08-01T06:28:18;9.32;;;4.05;;
49860;SDS011;35761;48.826;9.238;2023-08-01T06:30:44;8.60;;;3.83;;
49860;SDS011;35761;48.826;9.238;2023-08-01T06:33:10;8.25;;;4.30;;
49860;SDS011;35761;48.826;9.238;2023-08-01T06:35:36;7.30;;;3.70;;
49860;SDS011;35761;48.826;9.238;2023-08-01T06:38:01;10.13;;;3.95;;
49860;SDS011;35761;48.826;9.238;2023-08-01T06:40:27;9.38;;;4.00;;
49860;SDS011;35761;48.826;9.238;2023-08-01T06:42:52;7.53;;;4.20;;
49860;SDS011;35761;48.826;9.238;2023-08-01T06:45:17;8.88;;;4.15;;
49860;SDS011;35761;48.826;9.238;2023-08-01T06:47:43;9.25;;;4.10;;
49860;SDS011;35761;48.826;9.238;2023-08-01T06:50:09;9.95;;;4.10;;
49860;SDS011;35761;48.826;9.238;2023-08-01T06:52:35;8.52;;;4.03;;
49860;SDS011;35761;48.826;9.238;2023-08-01T06:55:00;8.35;;;4.20;;
49860;SDS011;35761;48.826;9.238;2023-08-01T06:57:26;8.93;;;4.18;;
49860;SDS011;35761;48.826;9.238;2023-08-01T06:59:52;12.18;;;5.07;;
49860;SDS011;35761;48.826;9.238;2023-08-01T07:02:18;8.82;;;4.80;;
49860;SDS011;35761;48.826;9.238;2023-08-01T07:04:44;9.73;;;4.65;;
49860;SDS011;35761;48.826;9.238;2023-08-01T07:07:09;10.40;;;5.15;;
49860;SDS011;35761;48.826;9.238;2023-08-01T07:09:34;18.98;;;11.00;;
49860;SDS011;35761;48.826;9.238;2023-08-01T07:12:00;8.27;;;5.68;;
49860;SDS011;35761;48.826;9.238;2023-08-01T07:14:25;9.73;;;5.50;;
49860;SDS011;35761;48.826;9.238;2023-08-01T07:16:51;9.60;;;5.35;;
49860;SDS011;35761;48.826;9.238;2023-08-01T07:19:16;15.48;;;5.18;;
49860;SDS011;35761;48.826;9.238;2023-08-01T07:21:42;12.00;;;6.07;;
49860;SDS011;35761;48.826;9.238;2023-08-01T07:24:09;8.75;;;5.35;;
49860;SDS011;35761;48.826;9.238;2023-08-01T07:26:35;9.43;;;5.85;;
49860;SDS011;35761;48.826;9.238;2023-08-01T07:29:00;10.85;;;5.70;;
49860;SDS011;35761;48.826;9.238;2023-08-01T07:31:25;10.38;;;5.88;;
49860;SDS011;35761;48.826;9.238;2023-08-01T07:33:51;12.90;;;6.47;;
49860;SDS011;35761;48.826;9.238;2023-08-01T07:36:16;13.98;;;6.35;;
49860;SDS011;35761;48.826;9.238;2023-08-01T07:38:42;19.42;;;6.65;;
49860;SDS011;35761;48.826;9.238;2023-08-01T07:41:07;12.55;;;6.95;;
49860;SDS011;35761;48.826;9.238;2023-08-01T07:43:33;10.90;;;7.13;;
49860;SDS011;35761;48.826;9.238;2023-08-01T07:45:59;12.35;;;6.57;;
49860;SDS011;35761;48.826;9.238;2023-08-01T07:48:24;13.00;;;6.20;;
49860;SDS011;35761;48.826;9.238;2023-08-01T07:50:50;16.48;;;7.28;;
49860;SDS011;35761;48.826;9.238;2023-08-01T07:53:16;11.68;;;6.40;;
49860;SDS011;35761;48.826;9.238;2023-08-01T07:55:41;11.40;;;5.95;;
49860;SDS011;35761;48.826;9.238;2023-08-01T07:58:07;10.48;;;5.63;;
49860;SDS011;35761;48.826;9.238;2023-08-01T08:00:34;11.63;;;6.18;;
49860;SDS011;35761;48.826;9.238;2023-08-01T08:03:00;11.45;;;5.60;;
49860;SDS011;35761;48.826;9.238;2023-08-01T08:05:25;10.60;;;5.45;;
49860;SDS011;35761;48.826;9.238;2023-08-01T08:07:50;9.25;;;5.45;;
49860;SDS011;35761;48.826;9.238;2023-08-01T08:10:16;11.48;;;6.07;;
49860;SDS011;35761;48.826;9.238;2023-08-01T08:12:41;8.77;;;4.45;;
49860;SDS011;35761;48.826;9.238;2023-08-01T08:15:07;9.43;;;4.90;;
49860;SDS011;35761;48.826;9.238;2023-08-01T08:17:33;10.20;;;5.20;;
49860;SDS011;35761;48.826;9.238;2023-08-01T08:19:58;7.78;;;4.82;;
49860;SDS011;35761;48.826;9.238;2023-08-01T08:22:24;8.57;;;4.68;;
49860;SDS011;35761;48.826;9.238;2023-08-01T08:24:49;7.65;;;4.55;;
49860;SDS011;35761;48.826;9.238;2023-08-01T08:27:15;7.70;;;4.50;;
49860;SDS011;35761;48.826;9.238;2023-08-01T08:29:40;8.25;;;4.32;;
49860;SDS011;35761;48.826;9.238;2023-08-01T08:32:06;6.93;;;4.35;;
49860;SDS011;35761;48.826;9.238;2023-08-01T08:34:32;9.60;;;4.45;;
49860;SDS011;35761;48.826;9.238;2023-08-01T08:36:57;10.88;;;4.00;;
49860;SDS011;35761;48.826;9.238;2023-08-01T08:39:23;7.75;;;4.05;;
49860;SDS011;35761;48.826;9.238;2023-08-01T08:41:50;8.52;;;4.43;;
49860;SDS011;35761;48.826;9.238;2023-08-01T08:44:17;6.15;;;3.70;;
49860;SDS011;35761;48.826;9.238;2023-08-01T08:46:46;6.97;;;3.53;;
49860;SDS011;35761;48.826;9.238;2023-08-01T08:49:15;8.75;;;4.32;;
49860;SDS011;35761;48.826;9.238;2023-08-01T08:51:41;9.48;;;4.53;;
49860;SDS011;35761;48.826;9.238;2023-08-01T08:54:07;9.40;;;3.65;;
49860;SDS011;35761;48.826;9.238;2023-08-01T08:56:33;7.22;;;3.83;;
49860;SDS011;35761;48.826;9.238;2023-08-01T08:58:59;6.80;;;3.88;;
49860;SDS011;35761;48.826;9.238;2023-08-01T09:01:25;6.05;;;3.60;;
49860;SDS011;35761;48.826;9.238;2023-08-01T09:03:51;9.95;;;3.67;;
49860;SDS011;35761;48.826;9.238;2023-08-01T09:06:19;7.65;;;3.55;;
49860;SDS011;35761;48.826;9.238;2023-08-01T09:08:51;9.02;;;3.63;;
49860;SDS011;35761;48.826;9.238;2023-08-01T09:11:26;6.47;;;3.45;;
49860;SDS011;35761;48.826;9.238;2023-08-01T09:13:52;5.72;;;3.60;;
49860;SDS011;35761;48.826;9.238;2023-08-01T09:16:17;5.80;;;3.55;;
49860;SDS011;35761;48.826;9.238;2023-08-01T09:18:47;6.57;;;3.25;;
49860;SDS011;35761;48.826;9.238;2023-08-01T09:21:17;6.28;;;3.38;;
49860;SDS011;35761;48.826;9.238;2023-08-01T09:23:43;7.70;;;2.90;;
49860;SDS011;35761;48.826;9.238;2023-08-01T09:26:15;7.82;;;3.05;;
49860;SDS011;35761;48.826;9.238;2023-08-01T09:28:41;6.30;;;2.72;;
49860;SDS011;35761;48.826;9.238;2023-08-01T09:31:07;5.25;;;2.90;;
49860;SDS011;35761;48.826;9.238;2023-08-01T09:33:41;7.53;;;3.25;;
49860;SDS011;35761;48.826;9.238;2023-08-01T09:36:08;8.35;;;2.75;;
49860;SDS011;35761;48.826;9.238;2023-08-01T09:38:37;3.83;;;2.75;;
49860;SDS011;35761;48.826;9.238;2023-08-01T09:41:04;4.25;;;2.60;;
49860;SDS011;35761;48.826;9.238;2023-08-01T09:43:33;6.05;;;2.72;;
49860;SDS011;35761;48.826;9.238;2023-08-01T09:46:02;6.85;;;2.67;;
49860;SDS011;35761;48.826;9.238;2023-08-01T09:48:28;5.40;;;2.65;;
49860;SDS011;35761;48.826;9.238;2023-08-01T09:51:12;3.78;;;2.30;;
49860;SDS011;35761;48.826;9.238;2023-08-01T09:53:49;5.38;;;2.70;;
49860;SDS011;35761;48.826;9.238;2023-08-01T09:56:22;9.02;;;2.83;;
49860;SDS011;35761;48.826;9.238;2023-08-01T09:58:49;4.05;;;2.10;;
49860;SDS011;35761;48.826;9.238;2023-08-01T10:01:17;5.28;;;1.83;;
49860;SDS011;35761;48.826;9.238;2023-08-01T10:03:46;3.42;;;1.60;;
49860;SDS011;35761;48.826;9.238;2023-08-01T10:06:23;3.72;;;2.00;;
49860;SDS011;35761;48.826;9.238;2023-08-01T10:08:50;4.80;;;1.80;;
49860;SDS011;35761;48.826;9.238;2023-08-01T10:11:18;2.08;;;1.50;;
49860;SDS011;35761;48.826;9.238;2023-08-01T10:13:45;2.70;;;1.27;;
49860;SDS011;35761;48.826;9.238;2023-08-01T10:16:11;1.85;;;1.20;;
49860;SDS011;35761;48.826;9.238;2023-08-01T10:18:37;1.92;;;1.13;;
49860;SDS011;35761;48.826;9.238;2023-08-01T10:21:08;1.67;;;1.02;;
49860;SDS011;35761;48.826;9.238;2023-08-01T10:23:37;2.80;;;1.05;;
49860;SDS011;35761;48.826;9.238;2023-08-01T10:26:03;1.20;;;0.95;;
49860;SDS011;35761;48.826;9.238;2023-08-01T10:28:49;2.13;;;1.00;;
49860;SDS011;35761;48.826;9.238;2023-08-01T10:31:17;1.02;;;0.68;;
49860;SDS011;35761;48.826;9.238;2023-08-01T10:33:45;0.90;;;0.80;;
49860;SDS011;35761;48.826;9.238;2023-08-01T10:36:18;1.52;;;0.60;;
49860;SDS011;35761;48.826;9.238;2023-08-01T10:38:51;2.20;;;0.77;;
49860;SDS011;35761;48.826;9.238;2023-08-01T10:41:31;1.00;;;0.93;;
49860;SDS011;35761;48.826;9.238;2023-08-01T10:46:50;3.35;;;1.27;;
49860;SDS011;35761;48.826;9.238;2023-08-01T10:49:17;1.40;;;1.10;;
49860;SDS011;35761;48.826;9.238;2023-08-01T10:51:43;3.00;;;1.50;;
49860;SDS011;35761;48.826;9.238;2023-08-01T10:54:22;1.83;;;1.17;;
49860;SDS011;35761;48.826;9.238;2023-08-01T10:56:49;1.92;;;1.10;;
49860;SDS011;35761;48.826;9.238;2023-08-01T10:59:16;1.63;;;0.93;;
49860;SDS011;35761;48.826;9.238;2023-08-01T11:01:48;1.52;;;0.77;;
49860;SDS011;35761;48.826;9.238;2023-08-01T11:04:19;0.80;;;0.55;;
49860;SDS011;35761;48.826;9.238;2023-08-01T11:06:47;1.58;;;0.95;;
49860;SDS011;35761;48.826;9.238;2023-08-01T11:09:22;2.28;;;0.95;;
49860;SDS011;35761;48.826;9.238;2023-08-01T11:11:52;1.75;;;1.05;;
49860;SDS011;35761;48.826;9.238;2023-08-01T11:14:22;2.00;;;1.02;;
49860;SDS011;35761;48.826;9.238;2023-08-01T11:16:49;3.40;;;0.90;;
49860;SDS011;35761;48.826;9.238;2023-08-01T11:19:21;1.98;;;1.10;;
49860;SDS011;35761;48.826;9.238;2023-08-01T11:21:48;2.67;;;1.15;;
49860;SDS011;35761;48.826;9.238;2023-08-01T11:24:15;1.52;;;0.90;;
49860;SDS011;35761;48.826;9.238;2023-08-01T11:26:42;4.55;;;1.00;;
49860;SDS011;35761;48.826;9.238;2023-08-01T11:29:12;2.63;;;1.13;;
49860;SDS011;35761;48.826;9.238;2023-08-01T11:31:39;2.30;;;1.05;;
49860;SDS011;35761;48.826;9.238;2023-08-01T11:34:06;3.15;;;1.20;;
49860;SDS011;35761;48.826;9.238;2023-08-01T11:36:38;2.78;;;1.00;;
49860;SDS011;35761;48.826;9.238;2023-08-01T11:39:04;1.55;;;1.27;;
49860;SDS011;35761;48.826;9.238;2023-08-01T11:41:29;2.08;;;1.20;;
49860;SDS011;35761;48.826;9.238;2023-08-01T11:43:55;4.20;;;1.88;;
49860;SDS011;35761;48.826;9.238;2023-08-01T11:46:29;2.17;;;1.23;;
49860;SDS011;35761;48.826;9.238;2023-08-01T11:48:55;1.75;;;1.25;;
49860;SDS011;35761;48.826;9.238;2023-08-01T11:51:21;2.67;;;1.60;;
49860;SDS011;35761;48.826;9.238;2023-08-01T11:53:46;6.38;;;1.13;;
49860;SDS011;35761;48.826;9.238;2023-08-01T11:56:23;3.40;;;1.40;;
49860;SDS011;35761;48.826;9.238;2023-08-01T11:58:48;2.60;;;1.20;;
49860;SDS011;35761;48.826;9.238;2023-08-01T12:01:14;4.35;;;1.30;;
49860;SDS011;35761;48.826;9.238;2023-08-01T12:06:09;2.63;;;1.40;;
49860;SDS011;35761;48.826;9.238;2023-08-01T12:08:36;4.25;;;1.30;;
49860;SDS011;35761;48.826;9.238;2023-08-01T12:11:02;2.95;;;1.45;;
49860;SDS011;35761;48.826;9.238;2023-08-01T12:13:28;5.15;;;1.30;;
49860;SDS011;35761;48.826;9.238;2023-08-01T12:15:54;2.85;;;1.25;;
49860;SDS011;35761;48.826;9.238;2023-08-01T12:18:24;2.67;;;1.80;;
49860;SDS011;35761;48.826;9.238;2023-08-01T12:20:51;3.40;;;1.40;;
49860;SDS011;35761;48.826;9.238;2023-08-01T12:23:17;3.60;;;1.33;;
49860;SDS011;35761;48.826;9.238;2023-08-01T12:25:43;3.08;;;1.50;;
49860;SDS011;35761;48.826;9.238;2023-08-01T12:28:09;2.38;;;1.20;;
49860;SDS011;35761;48.826;9.238;2023-08-01T12:30:34;6.50;;;1.38;;
49860;SDS011;35761;48.826;9.238;2023-08-01T12:33:00;4.65;;;1.52;;
49860;SDS011;35761;48.826;9.238;2023-08-01T12:35:28;2.72;;;1.40;;
49860;SDS011;35761;48.826;9.238;2023-08-01T12:37:53;2.65;;;1.50;;
49860;SDS011;35761;48.826;9.238;2023-08-01T12:40:19;3.45;;;1.50;;
49860;SDS011;35761;48.826;9.238;2023-08-01T12:42:44;2.20;;;1.20;;
49860;SDS011;35761;48.826;9.238;2023-08-01T12:45:11;2.97;;;1.40;;
49860;SDS011;35761;48.826;9.238;2023-08-01T12:47:36;3.13;;;1.30;;
49860;SDS011;35761;48.826;9.238;2023-08-01T12:50:02;2.08;;;1.20;;
49860;SDS011;35761;48.826;9.238;2023-08-01T12:52:28;5.75;;;1.45;;
49860;SDS011;35761;48.826;9.238;2023-08-01T12:54:54;6.50;;;1.52;;
49860;SDS011;35761;48.826;9.238;2023-08-01T12:57:19;5.00;;;1.38;;
49860;SDS011;35761;48.826;9.238;2023-08-01T12:59:45;3.40;;;1.48;;
49860;SDS011;35761;48.826;9.238;2023-08-01T13:02:10;4.57;;;1.80;;
49860;SDS011;35761;48.826;9.238;2023-08-01T13:04:36;2.80;;;1.33;;
49860;SDS011;35761;48.826;9.238;2023-08-01T13:07:01;3.72;;;1.70;;
49860;SDS011;35761;48.826;9.238;2023-08-01T13:09:27;3.03;;;1.40;;
49860;SDS011;35761;48.826;9.238;2023-08-01T13:11:52;2.47;;;1.23;;
49860;SDS011;35761;48.826;9.238;2023-08-01T13:14:18;2.88;;;1.40;;
49860;SDS011;35761;48.826;9.238;2023-08-01T13:16:43;2.85;;;1.65;;
49860;SDS011;35761;48.826;9.238;2023-08-01T13:19:09;2.33;;;1.50;;
49860;SDS011;35761;48.826;9.238;2023-08-01T13:21:34;4.85;;;2.17;;
49860;SDS011;35761;48.826;9.238;2023-08-01T13:24:00;2.67;;;1.40;;
49860;SDS011;35761;48.826;9.238;2023-08-01T13:26:30;3.33;;;1.80;;
49860;SDS011;35761;48.826;9.238;2023-08-01T13:28:56;2.85;;;1.40;;
49860;SDS011;35761;48.826;9.238;2023-08-01T13:31:23;3.72;;;1.40;;
49860;SDS011;35761;48.826;9.238;2023-08-01T13:33:48;1.88;;;1.40;;
49860;SDS011;35761;48.826;9.238;2023-08-01T13:36:13;5.20;;;1.40;;
49860;SDS011;35761;48.826;9.238;2023-08-01T13:38:39;3.55;;;1.60;;
49860;SDS011;35761;48.826;9.238;2023-08-01T13:41:04;10.25;;;1.48;;
49860;SDS011;35761;48.826;9.238;2023-08-01T13:43:30;2.20;;;1.50;;
49860;SDS011;35761;48.826;9.238;2023-08-01T13:45:55;4.57;;;1.70;;
49860;SDS011;35761;48.826;9.238;2023-08-01T13:48:21;3.15;;;1.50;;
49860;SDS011;35761;48.826;9.238;2023-08-01T13:50:46;2.75;;;1.40;;
49860;SDS011;35761;48.826;9.238;2023-08-01T13:53:12;2.17;;;1.30;;
49860;SDS011;35761;48.826;9.238;2023-08-01T13:55:39;2.75;;;1.55;;
49860;SDS011;35761;48.826;9.238;2023-08-01T13:58:05;5.07;;;1.83;;
49860;SDS011;35761;48.826;9.238;2023-08-01T14:00:31;8.25;;;1.88;;
49860;SDS011;35761;48.826;9.238;2023-08-01T14:02:57;7.72;;;1.77;;
49860;SDS011;35761;48.826;9.238;2023-08-01T14:05:25;3.67;;;1.58;;
49860;SDS011;35761;48.826;9.238;2023-08-01T14:07:51;4.72;;;1.40;;
49860;SDS011;35761;48.826;9.238;2023-08-01T14:10:17;3.30;;;1.67;;
49860;SDS011;35761;48.826;9.238;2023-08-01T14:12:43;1.95;;;1.33;;
49860;SDS011;35761;48.826;9.238;2023-08-01T14:15:09;3.38;;;1.55;;
49860;SDS011;35761;48.826;9.238;2023-08-01T14:17:34;2.90;;;1.40;;
49860;SDS011;35761;48.826;9.238;2023-08-01T14:20:00;5.82;;;1.60;;
49860;SDS011;35761;48.826;9.238;2023-08-01T14:22:25;5.53;;;1.63;;
49860;SDS011;35761;48.826;9.238;2023-08-01T14:24:51;4.95;;;1.42;;
49860;SDS011;35761;48.826;9.238;2023-08-01T14:27:16;3.50;;;1.60;;
49860;SDS011;35761;48.826;9.238;2023-08-01T14:29:42;5.57;;;1.90;;
49860;SDS011;35761;48.826;9.238;2023-08-01T14:32:07;12.60;;;1.80;;
49860;SDS011;35761;48.826;9.238;2023-08-01T14:34:33;2.45;;;1.40;;
49860;SDS011;35761;48.826;9.238;2023-08-01T14:36:58;7.03;;;1.40;;
49860;SDS011;35761;48.826;9.238;2023-08-01T14:39:23;3.22;;;1.60;;
49860;SDS011;35761;48.826;9.238;2023-08-01T14:41:49;4.10;;;1.42;;
49860;SDS011;35761;48.826;9.238;2023-08-01T14:44:15;2.88;;;1.40;;
49860;SDS011;35761;48.826;9.238;2023-08-01T14:46:40;3.42;;;1.60;;